Pagrindinis puslapis
METAR-TAF:

METAR-TAF

Oro uostai :

Namsos, Norvegija

platuma: 64-28N, ilguma: 011-35E, Aukštis: 0 m

Dabartinis oras

Ataskaita buvo paskelbta 26 minutes, ne 12:50 UTC
Vėjas 7 kt iš Šiaurės Rytų
Temperatūra 0°C
Drėgmė 93%
Slėgis 991 hPa
Matomumas 10 km arba daugiau
nėra debesų žemiau 1500 m ir nėra kamuolinių lietaus debesų

METAR: ENNM 161250Z 05007KT CAVOK 00/M01 Q0991

Laikas: 14:16 (13:16 UTC)


TAF: trūkstamas

Orai ataskaitas ir orų prognozės (METAR, TAF).

turimą stotys yra geltonos ir raudonos taškus žemėlapyje.

Perkelti pele per norėdami pamatyti stoties vardą.

Tada spustelėkite, norėdami matyti oro stebėjimo ir prognozės.

Norėdami pakeisti žemėlapį: spustelėkite ant žalios mygtukų su juodo kryžiaus žemyn,; žalią mygtuką su brūkšneliu, jei norite nutolinti; arba žalių rodyklių gretimoms žemėlapius.


METAR-TAF: